Time;durP1;ratioP1;P1;durP2;ratioP2;P2;SDS_P1;SDS_P2;PMS_P1;PMS_P2;Temp;Humidity;BMP_temperature;BMP_pressure;BME280_temperature;BME280_humidity;BME280_pressure;Samples;Min_cycle;Max_cycle;Signal;HPM_P1;HPM_P2
2021/04/14 00:01:43;;;;;;;;;;;;;;;;;;6185154;23;838;-59
2021/04/14 00:04:08;;;;;;;;;;;;;;;;;;6185599;23;1881;-59
2021/04/14 00:06:35;;;;;;;;;;;;;;;;;;6186418;23;1075;-59
2021/04/14 00:09:00;;;;;;;;;;;;;;;;;;6184435;23;1076;-59
2021/04/14 00:11:26;;;;;;;;;;;;;;;;;;6186206;23;853;-59
2021/04/14 00:13:51;;;;;;;;;;;;;;;;;;6186326;23;849;-59
2021/04/14 00:16:22;;;;;;;;;;;;;;;;;;6188784;23;841;-60
2021/04/14 00:18:48;;;;;;;;;;;;;;;;;;6188881;23;825;-60
2021/04/14 00:21:15;;;;;;;;;;;;;;;;;;6187268;23;825;-60
2021/04/14 00:23:42;;;;;;;;;;;;;;;;;;6187979;23;1865;-60
2021/04/14 00:26:08;;;;;;;;;;;;;;;;;;6188223;23;1070;-59
2021/04/14 00:28:34;;;;;;;;;;;;;;;;;;6187892;23;786;-58
2021/04/14 00:30:59;;;;;;;;;;;;;;;;;;6188573;23;901;-60
2021/04/14 00:33:25;;;;;;;;;;;;;;;;;;6188583;23;854;-59
2021/04/14 00:35:51;;;;;;;;;;;;;;;;;;6188946;23;865;-59
2021/04/14 00:38:18;;;;;;;;;;;;;;;;;;6187833;23;1040;-59
2021/04/14 00:40:45;;;;;;;;;;;;;;;;;;6186829;23;841;-59
2021/04/14 00:43:12;;;;;;;;;;;;;;;;;;6187339;23;821;-59
2021/04/14 00:45:38;;;;;;;;;;;;;;;;;;6188289;23;1864;-59
2021/04/14 00:48:04;;;;;;;;;;;;;;;;;;6188910;23;1047;-59
2021/04/14 00:50:29;;;;;;;;;;;;;;;;;;6187374;23;774;-59
2021/04/14 00:52:55;;;;;;;;;;;;;;;;;;6189511;23;799;-58
2021/04/14 00:55:23;;;;;;;;;;;;;;;;;;6187450;23;1012;-59
2021/04/14 00:57:49;;;;;;;;;;;;;;;;;;6188967;23;822;-59
2021/04/14 01:00:34;;;;;;;;;;;;;;;;;;6187918;23;817;-59
2021/04/14 01:03:01;;;;;;;;;;;;;;;;;;6188472;23;865;-59
2021/04/14 01:05:27;;;;;;;;;;;;;;;;;;6186701;23;1857;-60
2021/04/14 01:07:53;;;;;;;;;;;;;;;;;;6187794;23;1443;-58
2021/04/14 01:10:19;;;;;;;;;;;;;;;;;;6187125;23;869;-57
2021/04/14 01:12:45;;;;;;;;;;;;;;;;;;6186723;23;1368;-59
2021/04/14 01:15:12;;;;;;;;;;;;;;;;;;6189357;23;771;-59
2021/04/14 01:17:38;;;;;;;;;;;;;;;;;;6186449;23;802;-59
2021/04/14 01:20:04;;;;;;;;;;;;;;;;;;6187717;23;856;-59
2021/04/14 01:22:30;;;;;;;;;;;;;;;;;;6187569;23;841;-59
2021/04/14 01:24:55;;;;;;;;;;;;;;;;;;6187734;23;1865;-59
2021/04/14 01:27:20;;;;;;;;;;;;;;;;;;6187679;23;1069;-60
2021/04/14 01:29:46;;;;;;;;;;;;;;;;;;6187840;23;1054;-59
2021/04/14 01:32:12;;;;;;;;;;;;;;;;;;6187583;23;996;-59
2021/04/14 01:34:39;;;;;;;;;;;;;;;;;;6186828;23;1107;-59
2021/04/14 01:37:04;;;;;;;;;;;;;;;;;;6187699;23;1028;-58
2021/04/14 01:39:29;;;;;;;;;;;;;;;;;;6186032;23;869;-60
2021/04/14 01:41:55;;;;;;;;;;;;;;;;;;6188052;23;833;-59
2021/04/14 01:44:20;;;;;;;;;;;;;;;;;;6188118;23;1916;-59
2021/04/14 01:46:46;;;;;;;;;;;;;;;;;;6187810;23;865;-59
2021/04/14 01:49:12;;;;;;;;;;;;;;;;;;6187449;23;1087;-58
2021/04/14 01:51:38;;;;;;;;;;;;;;;;;;6187594;23;830;-59
2021/04/14 01:54:04;;;;;;;;;;;;;;;;;;6185903;23;870;-58
2021/04/14 01:56:30;;;;;;;;;;;;;;;;;;6187333;23;1121;-59
2021/04/14 01:58:55;;;;;;;;;;;;;;;;;;6187659;23;948;-59
2021/04/14 02:01:21;;;;;;;;;;;;;;;;;;6187546;23;885;-57
2021/04/14 02:03:46;;;;;;;;;;;;;;;;;;6186229;23;1893;-59
2021/04/14 02:06:13;;;;;;;;;;;;;;;;;;6186202;23;806;-58
2021/04/14 02:08:39;;;;;;;;;;;;;;;;;;6188009;23;924;-57
2021/04/14 02:11:04;;;;;;;;;;;;;;;;;;6186181;23;1063;-57
2021/04/14 02:13:32;;;;;;;;;;;;;;;;;;6186683;23;798;-58
2021/04/14 02:15:58;;;;;;;;;;;;;;;;;;6188359;23;794;-59
2021/04/14 02:18:24;;;;;;;;;;;;;;;;;;6186404;23;782;-58
2021/04/14 02:20:50;;;;;;;;;;;;;;;;;;6187297;23;802;-57
2021/04/14 02:23:19;;;;;;;;;;;;;;;;;;6186480;23;818;-57
2021/04/14 02:25:45;;;;;;;;;;;;;;;;;;6186229;23;1853;-57
2021/04/14 02:28:11;;;;;;;;;;;;;;;;;;6188038;23;877;-57
2021/04/14 02:30:37;;;;;;;;;;;;;;;;;;6183788;23;1146;-58
2021/04/14 02:33:03;;;;;;;;;;;;;;;;;;6185642;23;1055;-57
2021/04/14 02:35:29;;;;;;;;;;;;;;;;;;6188976;23;905;-58
2021/04/14 02:37:54;;;;;;;;;;;;;;;;;;6184152;23;838;-57
2021/04/14 02:40:20;;;;;;;;;;;;;;;;;;6186759;23;829;-57
2021/04/14 02:42:48;;;;;;;;;;;;;;;;;;6185721;23;861;-56
2021/04/14 02:45:14;;;;;;;;;;;;;;;;;;6183287;23;1865;-59
2021/04/14 02:47:40;;;;;;;;;;;;;;;;;;6186796;23;845;-59
2021/04/14 02:50:06;;;;;;;;;;;;;;;;;;6186542;23;929;-58
2021/04/14 02:52:32;;;;;;;;;;;;;;;;;;6185054;23;1102;-58
2021/04/14 02:54:58;;;;;;;;;;;;;;;;;;6187888;23;834;-59
2021/04/14 02:57:23;;;;;;;;;;;;;;;;;;6184869;23;853;-58
2021/04/14 02:59:49;;;;;;;;;;;;;;;;;;6186381;23;798;-58
2021/04/14 03:02:15;;;;;;;;;;;;;;;;;;6185349;23;1072;-57
2021/04/14 03:04:40;;;;;;;;;;;;;;;;;;6185709;23;1914;-59
2021/04/14 03:07:06;;;;;;;;;;;;;;;;;;6186135;23;857;-57
2021/04/14 03:09:33;;;;;;;;;;;;;;;;;;6186825;23;857;-60
2021/04/14 03:11:58;;;;;;;;;;;;;;;;;;6185753;23;837;-58
2021/04/14 03:14:23;;;;;;;;;;;;;;;;;;6187340;23;1059;-57
2021/04/14 03:16:49;;;;;;;;;;;;;;;;;;6186574;23;841;-57
2021/04/14 03:19:14;;;;;;;;;;;;;;;;;;6184573;23;873;-57
2021/04/14 03:21:40;;;;;;;;;;;;;;;;;;6186704;23;908;-60
2021/04/14 03:24:05;;;;;;;;;;;;;;;;;;6186351;23;1923;-58
2021/04/14 03:26:31;;;;;;;;;;;;;;;;;;6185410;23;833;-60
2021/04/14 03:28:57;;;;;;;;;;;;;;;;;;6187856;23;838;-57
2021/04/14 03:31:26;;;;;;;;;;;;;;;;;;6183804;23;842;-57
2021/04/14 03:33:52;;;;;;;;;;;;;;;;;;6184706;23;1197;-56
2021/04/14 03:36:17;;;;;;;;;;;;;;;;;;6187330;23;960;-58
2021/04/14 03:38:42;;;;;;;;;;;;;;;;;;6184250;23;841;-57
2021/04/14 03:41:08;;;;;;;;;;;;;;;;;;6184756;23;876;-58
2021/04/14 03:43:33;;;;;;;;;;;;;;;;;;6186261;23;1919;-58
2021/04/14 03:46:00;;;;;;;;;;;;;;;;;;6185844;23;834;-57
2021/04/14 03:48:26;;;;;;;;;;;;;;;;;;6185705;23;834;-56
2021/04/14 03:50:52;;;;;;;;;;;;;;;;;;6184738;23;845;-57
2021/04/14 03:53:25;;;;;;;;;;;;;;;;;;6184050;23;810;-57
2021/04/14 03:56:04;;;;;;;;;;;;;;;;;;6186508;23;802;-57
2021/04/14 03:58:31;;;;;;;;;;;;;;;;;;6184330;23;973;-57
2021/04/14 04:00:57;;;;;;;;;;;;;;;;;;6185924;23;818;-59
2021/04/14 04:03:24;;;;;;;;;;;;;;;;;;6184828;23;1004;-57
2021/04/14 04:05:49;;;;;;;;;;;;;;;;;;6184480;23;1946;-57
2021/04/14 04:08:15;;;;;;;;;;;;;;;;;;6186541;23;865;-57
2021/04/14 04:10:40;;;;;;;;;;;;;;;;;;6183427;23;834;-57
2021/04/14 04:13:06;;;;;;;;;;;;;;;;;;6185108;23;968;-57
2021/04/14 04:15:33;;;;;;;;;;;;;;;;;;6186280;23;806;-60
2021/04/14 04:17:59;;;;;;;;;;;;;;;;;;6186027;23;857;-56
2021/04/14 04:20:25;;;;;;;;;;;;;;;;;;6185672;23;814;-57
2021/04/14 04:22:50;;;;;;;;;;;;;;;;;;6187888;23;897;-57
2021/04/14 04:25:16;;;;;;;;;;;;;;;;;;6183040;23;1869;-57
2021/04/14 04:27:41;;;;;;;;;;;;;;;;;;6185091;23;798;-57
2021/04/14 04:30:07;;;;;;;;;;;;;;;;;;6187007;23;825;-58
2021/04/14 04:32:33;;;;;;;;;;;;;;;;;;6184865;23;798;-58
2021/04/14 04:34:58;;;;;;;;;;;;;;;;;;6186277;23;877;-58
2021/04/14 04:37:24;;;;;;;;;;;;;;;;;;6186435;23;845;-59
2021/04/14 04:39:49;;;;;;;;;;;;;;;;;;6183892;23;853;-59
2021/04/14 04:42:15;;;;;;;;;;;;;;;;;;6185515;23;774;-58
2021/04/14 04:44:41;;;;;;;;;;;;;;;;;;6184869;23;1869;-57
2021/04/14 04:47:07;;;;;;;;;;;;;;;;;;6185326;23;1194;-57
2021/04/14 04:49:32;;;;;;;;;;;;;;;;;;6185989;23;834;-60
2021/04/14 04:51:58;;;;;;;;;;;;;;;;;;6186246;23;821;-57
2021/04/14 04:54:23;;;;;;;;;;;;;;;;;;6183997;23;853;-59
2021/04/14 04:56:49;;;;;;;;;;;;;;;;;;6187932;23;1024;-58
2021/04/14 04:59:14;;;;;;;;;;;;;;;;;;6180315;23;837;-57
2021/04/14 05:01:42;;;;;;;;;;;;;;;;;;6179757;23;1020;-57
2021/04/14 05:04:07;;;;;;;;;;;;;;;;;;6177136;23;1898;-57
2021/04/14 05:06:33;;;;;;;;;;;;;;;;;;6176681;23;833;-57
2021/04/14 05:08:58;;;;;;;;;;;;;;;;;;6175998;23;1506;-58
2021/04/14 05:11:23;;;;;;;;;;;;;;;;;;6175410;23;834;-56
2021/04/14 05:13:49;;;;;;;;;;;;;;;;;;6177179;23;887;-58
2021/04/14 05:16:14;;;;;;;;;;;;;;;;;;6176840;23;833;-57
2021/04/14 05:18:39;;;;;;;;;;;;;;;;;;6177031;23;857;-57
2021/04/14 05:21:06;;;;;;;;;;;;;;;;;;6175571;23;852;-59
2021/04/14 05:23:31;;;;;;;;;;;;;;;;;;6177909;23;1938;-57
2021/04/14 05:25:57;;;;;;;;;;;;;;;;;;6177346;23;858;-57
2021/04/14 05:28:24;;;;;;;;;;;;;;;;;;6177406;23;825;-57
2021/04/14 05:30:49;;;;;;;;;;;;;;;;;;6176078;23;1494;-56
2021/04/14 05:33:14;;;;;;;;;;;;;;;;;;6177284;23;814;-57
2021/04/14 05:35:41;;;;;;;;;;;;;;;;;;6175105;23;854;-59
2021/04/14 05:38:06;;;;;;;;;;;;;;;;;;6176014;23;810;-57
2021/04/14 05:40:32;;;;;;;;;;;;;;;;;;6176243;23;1251;-58
2021/04/14 05:42:58;;;;;;;;;;;;;;;;;;6177370;23;1001;-59
2021/04/14 05:45:26;;;;;;;;;;;;;;;;;;6175955;23;1919;-59
2021/04/14 05:47:51;;;;;;;;;;;;;;;;;;6176908;23;861;-58
2021/04/14 05:50:19;;;;;;;;;;;;;;;;;;6176856;23;818;-58
2021/04/14 05:52:44;;;;;;;;;;;;;;;;;;6176534;23;813;-58
2021/04/14 05:55:10;;;;;;;;;;;;;;;;;;6176348;23;833;-59
2021/04/14 05:57:36;;;;;;;;;;;;;;;;;;6177333;23;810;-59
2021/04/14 06:00:01;;;;;;;;;;;;;;;;;;6178308;23;778;-58
2021/04/14 06:02:27;;;;;;;;;;;;;;;;;;6177737;23;897;-58
2021/04/14 06:04:52;;;;;;;;;;;;;;;;;;6176604;23;1876;-58
2021/04/14 06:07:18;;;;;;;;;;;;;;;;;;6176956;23;798;-58
2021/04/14 06:09:44;;;;;;;;;;;;;;;;;;6177123;23;794;-58
2021/04/14 06:12:10;;;;;;;;;;;;;;;;;;6176441;23;798;-57
2021/04/14 06:14:35;;;;;;;;;;;;;;;;;;6177339;23;849;-59
2021/04/14 06:17:00;;;;;;;;;;;;;;;;;;6177838;23;795;-58
2021/04/14 06:19:26;;;;;;;;;;;;;;;;;;6175653;23;1582;-58
2021/04/14 06:21:52;;;;;;;;;;;;;;;;;;6177217;23;814;-57
2021/04/14 06:24:17;;;;;;;;;;;;;;;;;;6177074;23;1885;-58
2021/04/14 06:26:47;;;;;;;;;;;;;;;;;;6176617;23;873;-59
2021/04/14 06:29:13;;;;;;;;;;;;;;;;;;6176919;23;833;-58
2021/04/14 06:31:40;;;;;;;;;;;;;;;;;;6177284;23;814;-59
2021/04/14 06:34:25;;;;;;;;;;;;;;;;;;6177496;23;858;-58
2021/04/14 06:36:53;;;;;;;;;;;;;;;;;;6176161;23;858;-57
2021/04/14 06:39:20;;;;;;;;;;;;;;;;;;6176970;23;810;-58
2021/04/14 06:41:58;;;;;;;;;;;;;;;;;;6176378;23;854;-58
2021/04/14 06:44:31;;;;;;;;;;;;;;;;;;6176862;23;1908;-58
2021/04/14 06:46:57;;;;;;;;;;;;;;;;;;6175712;23;1147;-57
2021/04/14 06:49:22;;;;;;;;;;;;;;;;;;6176337;23;924;-58
2021/04/14 06:52:00;;;;;;;;;;;;;;;;;;6176918;23;869;-57
2021/04/14 06:54:32;;;;;;;;;;;;;;;;;;6176706;23;834;-59
2021/04/14 06:57:03;;;;;;;;;;;;;;;;;;6175882;23;865;-58
2021/04/14 06:59:30;;;;;;;;;;;;;;;;;;6175511;23;822;-58
2021/04/14 07:01:59;;;;;;;;;;;;;;;;;;6176099;23;825;-58
2021/04/14 07:04:32;;;;;;;;;;;;;;;;;;6175145;23;1896;-59
2021/04/14 07:06:59;;;;;;;;;;;;;;;;;;6175867;23;1456;-58
2021/04/14 07:09:27;;;;;;;;;;;;;;;;;;6175904;23;829;-58
2021/04/14 07:11:54;;;;;;;;;;;;;;;;;;6176351;23;806;-58
2021/04/14 07:14:20;;;;;;;;;;;;;;;;;;6176353;23;869;-59
2021/04/14 07:16:45;;;;;;;;;;;;;;;;;;6175007;23;977;-58
2021/04/14 07:19:23;;;;;;;;;;;;;;;;;;6176116;23;886;-57
2021/04/14 07:21:52;;;;;;;;;;;;;;;;;;6176565;23;805;-57
2021/04/14 07:24:38;;;;;;;;;;;;;;;;;;6176148;23;1885;-58
2021/04/14 07:27:12;;;;;;;;;;;;;;;;;;6176509;23;778;-58
2021/04/14 07:29:47;;;;;;;;;;;;;;;;;;6175915;23;849;-58
2021/04/14 07:32:15;;;;;;;;;;;;;;;;;;6176521;23;782;-58
2021/04/14 07:34:56;;;;;;;;;;;;;;;;;;6175066;23;747;-58
2021/04/14 07:37:38;;;;;;;;;;;;;;;;;;6175827;23;789;-58
2021/04/14 07:40:17;;;;;;;;;;;;;;;;;;6176825;23;841;-58
2021/04/14 07:43:01;;;;;;;;;;;;;;;;;;6176408;23;799;-59
2021/04/14 07:45:32;;;;;;;;;;;;;;;;;;6175823;23;1877;-58
2021/04/14 07:48:06;;;;;;;;;;;;;;;;;;6174097;23;691;-57
2021/04/14 07:50:43;;;;;;;;;;;;;;;;;;6177037;23;853;-59
2021/04/14 07:53:23;;;;;;;;;;;;;;;;;;6175833;23;822;-57
2021/04/14 07:56:20;;;;;;;;;;;;;;;;;;6176052;23;838;-59
2021/04/14 07:58:47;;;;;;;;;;;;;;;;;;6162740;23;1437;-58
2021/04/14 08:01:16;;;;;;;;;;;;;;;;;;6176225;23;841;-57
2021/04/14 08:03:42;;;;;;;;;;;;;;;;;;6174404;23;1920;-58
2021/04/14 08:06:10;;;;;;;;;;;;;;;;;;6176094;23;859;-57
2021/04/14 08:08:36;;;;;;;;;;;;;;;;;;6174411;23;924;-57
2021/04/14 08:11:04;;;;;;;;;;;;;;;;;;6175773;23;885;-57
2021/04/14 08:13:38;;;;;;;;;;;;;;;;;;6175692;23;826;-57
2021/04/14 08:16:15;;;;;;;;;;;;;;;;;;6177076;23;794;-57
2021/04/14 08:18:49;;;;;;;;;;;;;;;;;;6174817;23;798;-56
2021/04/14 08:21:23;;;;;;;;;;;;;;;;;;6176142;23;877;-57
2021/04/14 08:23:58;;;;;;;;;;;;;;;;;;6175619;23;1918;-56
2021/04/14 08:26:24;;;;;;;;;;;;;;;;;;6176307;23;858;-56
2021/04/14 08:28:51;;;;;;;;;;;;;;;;;;6176236;23;833;-56
2021/04/14 08:34:33;;;;;;;;;;;;;;;;;;6157435;23;1095;-56
2021/04/14 08:37:03;;;;;;;;;;;;;;;;;;6176598;23;873;-56
2021/04/14 08:39:31;;;;;;;;;;;;;;;;;;6176942;23;774;-57
2021/04/14 08:42:11;;;;;;;;;;;;;;;;;;6177416;23;854;-57
2021/04/14 08:44:38;;;;;;;;;;;;;;;;;;6177164;23;1873;-58
2021/04/14 08:47:10;;;;;;;;;;;;;;;;;;6178728;23;818;-57
2021/04/14 08:49:36;;;;;;;;;;;;;;;;;;6178514;23;786;-58
2021/04/14 08:52:02;;;;;;;;;;;;;;;;;;6178346;23;782;-57
2021/04/14 08:54:30;;;;;;;;;;;;;;;;;;6177689;23;802;-57
2021/04/14 08:56:56;;;;;;;;;;;;;;;;;;6177659;23;830;-58
2021/04/14 08:59:22;;;;;;;;;;;;;;;;;;6177475;23;786;-58
2021/04/14 09:01:48;;;;;;;;;;;;;;;;;;6175963;23;1537;-59
2021/04/14 09:04:14;;;;;;;;;;;;;;;;;;6176097;23;1931;-58
2021/04/14 09:06:43;;;;;;;;;;;;;;;;;;6177062;23;841;-70
2021/04/14 09:09:11;;;;;;;;;;;;;;;;;;6177633;23;821;-57
2021/04/14 09:11:36;;;;;;;;;;;;;;;;;;6178044;23;786;-59
2021/04/14 09:14:31;;;;;;;;;;;;;;;;;;6177986;23;659;-58
2021/04/14 09:17:04;;;;;;;;;;;;;;;;;;6163639;23;1456;-57
2021/04/14 09:19:34;;;;;;;;;;;;;;;;;;6177044;23;774;-57
2021/04/14 09:22:21;;;;;;;;;;;;;;;;;;6177026;23;790;-58
2021/04/14 09:24:56;;;;;;;;;;;;;;;;;;6177179;23;1908;-58
2021/04/14 09:27:31;;;;;;;;;;;;;;;;;;6177177;23;878;-58
2021/04/14 09:30:09;;;;;;;;;;;;;;;;;;6177258;23;866;-57
2021/04/14 09:32:37;;;;;;;;;;;;;;;;;;6178543;23;806;-58
2021/04/14 09:35:16;;;;;;;;;;;;;;;;;;6177782;23;884;-57
2021/04/14 09:37:42;;;;;;;;;;;;;;;;;;6177072;23;1225;-57
2021/04/14 09:40:08;;;;;;;;;;;;;;;;;;6177247;23;650;-57
2021/04/14 09:42:34;;;;;;;;;;;;;;;;;;6178328;23;857;-57
2021/04/14 09:45:11;;;;;;;;;;;;;;;;;;6176625;23;1920;-57
2021/04/14 09:47:37;;;;;;;;;;;;;;;;;;6176874;23;807;-58
2021/04/14 09:50:40;;;;;;;;;;;;;;;;;;6178280;23;806;-56
2021/04/14 09:53:20;;;;;;;;;;;;;;;;;;6114725;23;1240;-59
2021/04/14 09:56:06;;;;;;;;;;;;;;;;;;6114704;23;818;-57
2021/04/14 09:58:35;;;;;;;;;;;;;;;;;;6157539;23;992;-57
2021/04/14 10:01:10;;;;;;;;;;;;;;;;;;6176767;23;834;-57
2021/04/14 10:03:38;;;;;;;;;;;;;;;;;;6177911;23;818;-58
2021/04/14 10:06:08;;;;;;;;;;;;;;;;;;6177976;23;1912;-57
2021/04/14 10:08:34;;;;;;;;;;;;;;;;;;6178342;23;822;-59
2021/04/14 10:11:00;;;;;;;;;;;;;;;;;;6177210;23;858;-57
2021/04/14 10:13:27;;;;;;;;;;;;;;;;;;6177148;23;917;-57
2021/04/14 10:15:52;;;;;;;;;;;;;;;;;;6176932;23;834;-58
2021/04/14 10:18:25;;;;;;;;;;;;;;;;;;6176998;23;908;-57
2021/04/14 10:20:52;;;;;;;;;;;;;;;;;;6176663;23;825;-57
2021/04/14 10:23:19;;;;;;;;;;;;;;;;;;6176179;23;814;-58
2021/04/14 10:25:45;;;;;;;;;;;;;;;;;;6176606;23;1888;-57
2021/04/14 10:28:16;;;;;;;;;;;;;;;;;;6177228;23;861;-57
2021/04/14 10:30:46;;;;;;;;;;;;;;;;;;6175874;23;921;-57
2021/04/14 10:33:22;;;;;;;;;;;;;;;;;;6177353;23;845;-57
2021/04/14 10:35:48;;;;;;;;;;;;;;;;;;6176585;23;1001;-57
2021/04/14 10:38:14;;;;;;;;;;;;;;;;;;6175321;23;848;-57
2021/04/14 10:40:44;;;;;;;;;;;;;;;;;;6176646;23;790;-57
2021/04/14 10:43:19;;;;;;;;;;;;;;;;;;6176726;23;778;-57
2021/04/14 10:45:57;;;;;;;;;;;;;;;;;;6177118;23;1873;-57
2021/04/14 10:48:23;;;;;;;;;;;;;;;;;;6177284;23;845;-58
2021/04/14 10:50:49;;;;;;;;;;;;;;;;;;6177262;23;810;-57
2021/04/14 10:53:15;;;;;;;;;;;;;;;;;;6177101;23;771;-57
2021/04/14 10:55:44;;;;;;;;;;;;;;;;;;6176588;23;841;-57
2021/04/14 10:58:15;;;;;;;;;;;;;;;;;;6176314;23;876;-57
2021/04/14 11:00:41;;;;;;;;;;;;;;;;;;6176767;23;786;-57
2021/04/14 11:03:06;;;;;;;;;;;;;;;;;;6175436;23;810;-58
2021/04/14 11:05:34;;;;;;;;;;;;;;;;;;6177520;23;1873;-57
2021/04/14 11:08:00;;;;;;;;;;;;;;;;;;6176426;23;888;-57
2021/04/14 11:10:27;;;;;;;;;;;;;;;;;;6177177;23;802;-57
2021/04/14 11:12:54;;;;;;;;;;;;;;;;;;6177087;23;795;-57
2021/04/14 11:15:21;;;;;;;;;;;;;;;;;;6174960;23;1454;-57
2021/04/14 11:18:13;;;;;;;;;;;;;;;;;;6176828;23;865;-57
2021/04/14 11:20:58;;;;;;;;;;;;;;;;;;6174052;23;1412;-56
2021/04/14 11:23:29;;;;;;;;;;;;;;;;;;6175421;23;1340;-57
2021/04/14 11:26:05;;;;;;;;;;;;;;;;;;6176428;23;1941;-56
2021/04/14 11:28:38;;;;;;;;;;;;;;;;;;6176910;23;783;-57
2021/04/14 11:31:04;;;;;;;;;;;;;;;;;;6177668;23;858;-56
2021/04/14 11:33:45;;;;;;;;;;;;;;;;;;6176440;23;766;-56
2021/04/14 11:36:26;;;;;;;;;;;;;;;;;;6174975;23;1328;-56
2021/04/14 11:38:58;;;;;;;;;;;;;;;;;;6176419;23;778;-56
2021/04/14 11:41:34;;;;;;;;;;;;;;;;;;6175827;23;810;-57
2021/04/14 11:44:00;;;;;;;;;;;;;;;;;;6176170;23;1881;-56
2021/04/14 11:46:25;;;;;;;;;;;;;;;;;;6176399;23;861;-57
2021/04/14 11:49:00;;;;;;;;;;;;;;;;;;6176751;23;818;-57
2021/04/14 11:51:28;;;;;;;;;;;;;;;;;;6176462;23;838;-58
2021/04/14 11:53:56;;;;;;;;;;;;;;;;;;6176373;23;810;-58
2021/04/14 11:56:30;;;;;;;;;;;;;;;;;;6176385;23;833;-58
2021/04/14 11:58:56;;;;;;;;;;;;;;;;;;6176191;23;830;-58
2021/04/14 12:01:22;;;;;;;;;;;;;;;;;;6176550;23;779;-57
2021/04/14 12:03:48;;;;;;;;;;;;;;;;;;6176112;23;1912;-58
2021/04/14 12:06:13;;;;;;;;;;;;;;;;;;6176054;23;830;-57
2021/04/14 12:08:38;;;;;;;;;;;;;;;;;;6175956;23;821;-58
2021/04/14 12:11:05;;;;;;;;;;;;;;;;;;6176372;23;897;-57
2021/04/14 12:13:31;;;;;;;;;;;;;;;;;;6176677;23;1257;-57
2021/04/14 12:15:56;;;;;;;;;;;;;;;;;;6177898;23;845;-57
2021/04/14 12:18:21;;;;;;;;;;;;;;;;;;6177954;23;869;-58
2021/04/14 12:20:47;;;;;;;;;;;;;;;;;;6178327;23;928;-58
2021/04/14 12:23:13;;;;;;;;;;;;;;;;;;6178796;23;857;-58
2021/04/14 12:25:39;;;;;;;;;;;;;;;;;;6178150;23;2349;-57
2021/04/14 12:28:05;;;;;;;;;;;;;;;;;;6179215;23;777;-57
2021/04/14 12:30:30;;;;;;;;;;;;;;;;;;6178694;23;905;-59
2021/04/14 12:32:56;;;;;;;;;;;;;;;;;;6178716;23;886;-58
2021/04/14 12:35:22;;;;;;;;;;;;;;;;;;6178192;23;778;-57
2021/04/14 12:37:48;;;;;;;;;;;;;;;;;;6178141;23;862;-57
2021/04/14 12:40:14;;;;;;;;;;;;;;;;;;6178066;23;846;-57
2021/04/14 12:42:40;;;;;;;;;;;;;;;;;;6176292;23;1222;-58
2021/04/14 12:45:09;;;;;;;;;;;;;;;;;;6178497;23;1912;-58
2021/04/14 12:47:35;;;;;;;;;;;;;;;;;;6178439;23;849;-58
2021/04/14 12:50:00;;;;;;;;;;;;;;;;;;6177514;23;926;-58
2021/04/14 12:52:37;;;;;;;;;;;;;;;;;;6177567;23;858;-58
2021/04/14 12:55:10;;;;;;;;;;;;;;;;;;6178872;23;813;-58
2021/04/14 12:57:39;;;;;;;;;;;;;;;;;;6178512;23;821;-59
2021/04/14 13:00:06;;;;;;;;;;;;;;;;;;6178373;23;782;-58
2021/04/14 13:02:39;;;;;;;;;;;;;;;;;;6178120;23;1063;-58
2021/04/14 13:05:07;;;;;;;;;;;;;;;;;;6178762;23;1873;-58
2021/04/14 13:07:36;;;;;;;;;;;;;;;;;;6178767;23;862;-59
2021/04/14 13:10:05;;;;;;;;;;;;;;;;;;6178713;23;806;-57
2021/04/14 13:12:32;;;;;;;;;;;;;;;;;;6175917;23;883;-58
2021/04/14 13:14:57;;;;;;;;;;;;;;;;;;6177444;23;846;-58
2021/04/14 13:17:25;;;;;;;;;;;;;;;;;;6177633;23;922;-58
2021/04/14 13:19:51;;;;;;;;;;;;;;;;;;6177620;23;778;-58
2021/04/14 13:22:28;;;;;;;;;;;;;;;;;;6177589;23;997;-58
2021/04/14 13:25:01;;;;;;;;;;;;;;;;;;6177351;23;1916;-58
2021/04/14 13:27:40;;;;;;;;;;;;;;;;;;6177328;23;853;-59
2021/04/14 13:30:06;;;;;;;;;;;;;;;;;;6177839;23;834;-59
2021/04/14 13:32:38;;;;;;;;;;;;;;;;;;6178601;23;857;-59
2021/04/14 13:35:15;;;;;;;;;;;;;;;;;;6178334;23;845;-58
2021/04/14 13:37:49;;;;;;;;;;;;;;;;;;6177501;23;866;-58
2021/04/14 13:40:15;;;;;;;;;;;;;;;;;;6177424;23;782;-57
2021/04/14 13:42:45;;;;;;;;;;;;;;;;;;6177847;23;857;-58
2021/04/14 13:45:10;;;;;;;;;;;;;;;;;;6177777;23;1901;-58
2021/04/14 13:47:39;;;;;;;;;;;;;;;;;;6178579;23;857;-58
2021/04/14 13:50:11;;;;;;;;;;;;;;;;;;6178964;23;865;-58
2021/04/14 13:52:38;;;;;;;;;;;;;;;;;;6178496;23;893;-58
2021/04/14 13:55:04;;;;;;;;;;;;;;;;;;6178822;23;817;-58
2021/04/14 13:57:34;;;;;;;;;;;;;;;;;;6177248;23;936;-58
2021/04/14 14:00:01;;;;;;;;;;;;;;;;;;6177478;23;857;-58
2021/04/14 14:02:26;;;;;;;;;;;;;;;;;;6177727;23;775;-57
2021/04/14 14:04:53;;;;;;;;;;;;;;;;;;6177415;23;1916;-57
2021/04/14 14:07:24;;;;;;;;;;;;;;;;;;6177756;23;834;-58
2021/04/14 14:09:54;;;;;;;;;;;;;;;;;;6177125;23;790;-56
2021/04/14 14:12:24;;;;;;;;;;;;;;;;;;6177548;23;866;-57
2021/04/14 14:14:50;;;;;;;;;;;;;;;;;;6177369;23;825;-58
2021/04/14 14:17:17;;;;;;;;;;;;;;;;;;6177254;23;810;-57
2021/04/14 14:19:44;;;;;;;;;;;;;;;;;;6177142;23;766;-57
2021/04/14 14:22:11;;;;;;;;;;;;;;;;;;6177281;23;829;-57
2021/04/14 14:24:39;;;;;;;;;;;;;;;;;;6177537;23;1960;-59
2021/04/14 14:27:06;;;;;;;;;;;;;;;;;;6177911;23;849;-57
2021/04/14 14:29:32;;;;;;;;;;;;;;;;;;6177369;23;813;-56
2021/04/14 14:31:59;;;;;;;;;;;;;;;;;;6176667;23;818;-57
2021/04/14 14:34:26;;;;;;;;;;;;;;;;;;6176218;23;810;-57
2021/04/14 14:36:53;;;;;;;;;;;;;;;;;;6176954;23;786;-57
2021/04/14 14:39:22;;;;;;;;;;;;;;;;;;6175345;23;1119;-57
2021/04/14 14:41:54;;;;;;;;;;;;;;;;;;6176921;23;857;-58
2021/04/14 14:44:29;;;;;;;;;;;;;;;;;;6176860;23;1924;-58
2021/04/14 14:46:56;;;;;;;;;;;;;;;;;;6177158;23;917;-58
2021/04/14 14:49:29;;;;;;;;;;;;;;;;;;6176971;23;826;-59
2021/04/14 14:51:54;;;;;;;;;;;;;;;;;;6176873;23;775;-58
2021/04/14 14:54:20;;;;;;;;;;;;;;;;;;6176544;23;865;-58
2021/04/14 14:56:55;;;;;;;;;;;;;;;;;;6176930;23;909;-58
2021/04/14 14:59:26;;;;;;;;;;;;;;;;;;6175923;23;822;-58
2021/04/14 15:01:51;;;;;;;;;;;;;;;;;;6176946;23;1064;-58
2021/04/14 15:04:16;;;;;;;;;;;;;;;;;;6177015;23;1893;-57
2021/04/14 15:06:42;;;;;;;;;;;;;;;;;;6176407;23;794;-58
2021/04/14 15:09:08;;;;;;;;;;;;;;;;;;6176415;23;870;-58
2021/04/14 15:11:33;;;;;;;;;;;;;;;;;;6176841;23;817;-59
2021/04/14 15:13:59;;;;;;;;;;;;;;;;;;6176484;23;833;-58
2021/04/14 15:16:24;;;;;;;;;;;;;;;;;;6177075;23;983;-59
2021/04/14 15:18:50;;;;;;;;;;;;;;;;;;6176070;23;845;-59
2021/04/14 15:21:15;;;;;;;;;;;;;;;;;;6175909;23;881;-58
2021/04/14 15:23:41;;;;;;;;;;;;;;;;;;6176936;23;778;-59
2021/04/14 15:26:10;;;;;;;;;;;;;;;;;;6175071;23;2180;-58
2021/04/14 15:28:37;;;;;;;;;;;;;;;;;;6177555;23;830;-59
2021/04/14 15:31:03;;;;;;;;;;;;;;;;;;6177219;23;806;-58
2021/04/14 15:33:28;;;;;;;;;;;;;;;;;;6176126;23;889;-59
2021/04/14 15:35:54;;;;;;;;;;;;;;;;;;6176147;23;870;-58
2021/04/14 15:38:19;;;;;;;;;;;;;;;;;;6175112;23;1249;-59
2021/04/14 15:40:47;;;;;;;;;;;;;;;;;;6176550;23;857;-58
2021/04/14 15:43:12;;;;;;;;;;;;;;;;;;6176638;23;791;-57
2021/04/14 15:45:38;;;;;;;;;;;;;;;;;;6175636;23;1876;-58
2021/04/14 15:48:03;;;;;;;;;;;;;;;;;;6176927;23;834;-58
2021/04/14 15:50:30;;;;;;;;;;;;;;;;;;6175691;23;803;-58
2021/04/14 15:52:55;;;;;;;;;;;;;;;;;;6176003;23;865;-58
2021/04/14 15:55:23;;;;;;;;;;;;;;;;;;6176177;23;857;-58
2021/04/14 15:57:49;;;;;;;;;;;;;;;;;;6176229;23;829;-57
2021/04/14 16:00:17;;;;;;;;;;;;;;;;;;6176287;23;822;-58
2021/04/14 16:02:44;;;;;;;;;;;;;;;;;;6175869;23;838;-58
2021/04/14 16:05:11;;;;;;;;;;;;;;;;;;6175566;23;1992;-58
2021/04/14 16:07:37;;;;;;;;;;;;;;;;;;6176103;23;1097;-59
2021/04/14 16:10:03;;;;;;;;;;;;;;;;;;6175634;23;782;-58
2021/04/14 16:12:29;;;;;;;;;;;;;;;;;;6175867;23;1007;-58
2021/04/14 16:14:54;;;;;;;;;;;;;;;;;;6174998;23;866;-59
2021/04/14 16:17:19;;;;;;;;;;;;;;;;;;6175033;23;801;-58
2021/04/14 16:19:47;;;;;;;;;;;;;;;;;;6174924;23;794;-57
2021/04/14 16:22:13;;;;;;;;;;;;;;;;;;6175265;23;854;-58
2021/04/14 16:24:38;;;;;;;;;;;;;;;;;;6172963;23;1944;-59
2021/04/14 16:27:04;;;;;;;;;;;;;;;;;;6176143;23;612;-58
2021/04/14 16:29:29;;;;;;;;;;;;;;;;;;6175616;23;917;-58
2021/04/14 16:31:55;;;;;;;;;;;;;;;;;;6175101;23;802;-58
2021/04/14 16:34:20;;;;;;;;;;;;;;;;;;6175435;23;853;-57
2021/04/14 16:36:45;;;;;;;;;;;;;;;;;;6175221;23;766;-58
2021/04/14 16:39:11;;;;;;;;;;;;;;;;;;6173885;23;856;-58
2021/04/14 16:41:37;;;;;;;;;;;;;;;;;;6176783;23;822;-58
2021/04/14 16:44:02;;;;;;;;;;;;;;;;;;6174934;23;1876;-57
2021/04/14 16:46:28;;;;;;;;;;;;;;;;;;6176078;23;774;-57
2021/04/14 16:48:56;;;;;;;;;;;;;;;;;;6176124;23;755;-58
2021/04/14 16:51:22;;;;;;;;;;;;;;;;;;6175232;23;798;-58
2021/04/14 16:53:48;;;;;;;;;;;;;;;;;;6174696;23;833;-57
2021/04/14 16:56:13;;;;;;;;;;;;;;;;;;6174854;23;833;-58
2021/04/14 16:58:38;;;;;;;;;;;;;;;;;;6175691;23;830;-58
2021/04/14 17:01:04;;;;;;;;;;;;;;;;;;6177810;23;831;-57
2021/04/14 17:03:30;;;;;;;;;;;;;;;;;;6177232;23;833;-57
2021/04/14 17:05:56;;;;;;;;;;;;;;;;;;6177508;23;1901;-58
2021/04/14 17:08:22;;;;;;;;;;;;;;;;;;6177127;23;814;-58
2021/04/14 17:10:48;;;;;;;;;;;;;;;;;;6177589;23;787;-57
2021/04/14 17:13:23;;;;;;;;;;;;;;;;;;6177976;23;842;-57
2021/04/14 17:15:48;;;;;;;;;;;;;;;;;;6177698;23;857;-58
2021/04/14 17:18:14;;;;;;;;;;;;;;;;;;6178012;23;778;-58
2021/04/14 17:20:39;;;;;;;;;;;;;;;;;;6177593;23;884;-58
2021/04/14 17:23:05;;;;;;;;;;;;;;;;;;6178141;23;810;-58
2021/04/14 17:25:35;;;;;;;;;;;;;;;;;;6177268;23;1897;-58